sensor_id;sensor_type;location;lat;lon;timestamp;P1;durP1;ratioP1;P2;durP2;ratioP2
72379;SDS011;60354;47.798;12.472;2023-05-10T00:02:07;1.52;;;0.80;;
72379;SDS011;60354;47.798;12.472;2023-05-10T00:04:33;0.85;;;0.75;;
72379;SDS011;60354;47.798;12.472;2023-05-10T00:06:58;0.80;;;0.80;;
72379;SDS011;60354;47.798;12.472;2023-05-10T00:09:24;0.73;;;0.70;;
72379;SDS011;60354;47.798;12.472;2023-05-10T00:11:50;0.70;;;0.70;;
72379;SDS011;60354;47.798;12.472;2023-05-10T00:14:15;1.23;;;0.70;;
72379;SDS011;60354;47.798;12.472;2023-05-10T00:16:41;0.90;;;0.60;;
72379;SDS011;60354;47.798;12.472;2023-05-10T00:19:06;1.02;;;0.80;;
72379;SDS011;60354;47.798;12.472;2023-05-10T00:21:32;0.63;;;0.63;;
72379;SDS011;60354;47.798;12.472;2023-05-10T00:23:58;1.40;;;0.70;;
72379;SDS011;60354;47.798;12.472;2023-05-10T00:26:24;1.60;;;0.52;;
72379;SDS011;60354;47.798;12.472;2023-05-10T00:28:53;0.50;;;0.50;;
72379;SDS011;60354;47.798;12.472;2023-05-10T00:31:19;1.73;;;0.60;;
72379;SDS011;60354;47.798;12.472;2023-05-10T00:33:44;0.50;;;0.50;;
72379;SDS011;60354;47.798;12.472;2023-05-10T00:36:10;0.38;;;0.38;;
72379;SDS011;60354;47.798;12.472;2023-05-10T00:38:35;0.45;;;0.43;;
72379;SDS011;60354;47.798;12.472;2023-05-10T00:41:01;0.40;;;0.40;;
72379;SDS011;60354;47.798;12.472;2023-05-10T00:43:30;0.43;;;0.30;;
72379;SDS011;60354;47.798;12.472;2023-05-10T00:45:55;0.30;;;0.30;;
72379;SDS011;60354;47.798;12.472;2023-05-10T00:48:21;0.40;;;0.40;;
72379;SDS011;60354;47.798;12.472;2023-05-10T00:50:47;0.52;;;0.40;;
72379;SDS011;60354;47.798;12.472;2023-05-10T00:53:13;0.45;;;0.20;;
72379;SDS011;60354;47.798;12.472;2023-05-10T00:55:40;1.33;;;0.30;;
72379;SDS011;60354;47.798;12.472;2023-05-10T00:58:05;2.20;;;0.38;;
72379;SDS011;60354;47.798;12.472;2023-05-10T01:00:32;2.65;;;0.20;;
72379;SDS011;60354;47.798;12.472;2023-05-10T01:02:58;0.55;;;0.30;;
72379;SDS011;60354;47.798;12.472;2023-05-10T01:05:24;0.68;;;0.30;;
72379;SDS011;60354;47.798;12.472;2023-05-10T01:07:52;0.60;;;0.22;;
72379;SDS011;60354;47.798;12.472;2023-05-10T01:10:17;0.15;;;0.15;;
72379;SDS011;60354;47.798;12.472;2023-05-10T01:12:44;0.38;;;0.30;;
72379;SDS011;60354;47.798;12.472;2023-05-10T01:15:11;0.68;;;0.30;;
72379;SDS011;60354;47.798;12.472;2023-05-10T01:17:39;0.88;;;0.40;;
72379;SDS011;60354;47.798;12.472;2023-05-10T01:20:07;0.30;;;0.17;;
72379;SDS011;60354;47.798;12.472;2023-05-10T01:33:46;0.55;;;0.35;;
72379;SDS011;60354;47.798;12.472;2023-05-10T01:38:46;1.05;;;0.47;;
72379;SDS011;60354;47.798;12.472;2023-05-10T01:41:30;1.33;;;0.35;;
72379;SDS011;60354;47.798;12.472;2023-05-10T01:44:09;2.15;;;0.32;;
72379;SDS011;60354;47.798;12.472;2023-05-10T01:46:41;1.25;;;0.50;;
72379;SDS011;60354;47.798;12.472;2023-05-10T01:49:24;1.02;;;0.50;;
72379;SDS011;60354;47.798;12.472;2023-05-10T01:51:53;0.35;;;0.35;;
72379;SDS011;60354;47.798;12.472;2023-05-10T01:54:24;0.60;;;0.40;;
72379;SDS011;60354;47.798;12.472;2023-05-10T01:56:55;0.40;;;0.40;;
72379;SDS011;60354;47.798;12.472;2023-05-10T01:59:24;0.20;;;0.20;;
72379;SDS011;60354;47.798;12.472;2023-05-10T02:01:54;0.50;;;0.25;;
72379;SDS011;60354;47.798;12.472;2023-05-10T02:04:23;0.30;;;0.30;;
72379;SDS011;60354;47.798;12.472;2023-05-10T02:06:51;0.10;;;0.10;;
72379;SDS011;60354;47.798;12.472;2023-05-10T02:09:20;1.52;;;0.10;;
72379;SDS011;60354;47.798;12.472;2023-05-10T02:11:46;1.50;;;0.50;;
72379;SDS011;60354;47.798;12.472;2023-05-10T02:14:14;0.98;;;0.40;;
72379;SDS011;60354;47.798;12.472;2023-05-10T02:16:41;0.10;;;0.10;;
72379;SDS011;60354;47.798;12.472;2023-05-10T02:19:08;1.77;;;0.55;;
72379;SDS011;60354;47.798;12.472;2023-05-10T02:21:35;0.57;;;0.38;;
72379;SDS011;60354;47.798;12.472;2023-05-10T02:24:02;0.40;;;0.40;;
72379;SDS011;60354;47.798;12.472;2023-05-10T02:26:29;0.50;;;0.40;;
72379;SDS011;60354;47.798;12.472;2023-05-10T02:28:56;0.30;;;0.30;;
72379;SDS011;60354;47.798;12.472;2023-05-10T02:31:23;0.50;;;0.30;;
72379;SDS011;60354;47.798;12.472;2023-05-10T02:33:49;0.57;;;0.40;;
72379;SDS011;60354;47.798;12.472;2023-05-10T02:36:17;0.90;;;0.30;;
72379;SDS011;60354;47.798;12.472;2023-05-10T02:38:44;0.47;;;0.20;;
72379;SDS011;60354;47.798;12.472;2023-05-10T02:41:11;0.50;;;0.45;;
72379;SDS011;60354;47.798;12.472;2023-05-10T02:43:38;1.77;;;0.40;;
72379;SDS011;60354;47.798;12.472;2023-05-10T02:46:05;0.60;;;0.30;;
72379;SDS011;60354;47.798;12.472;2023-05-10T02:48:31;1.27;;;0.40;;
72379;SDS011;60354;47.798;12.472;2023-05-10T02:50:59;1.42;;;0.50;;
72379;SDS011;60354;47.798;12.472;2023-05-10T02:53:33;0.73;;;0.40;;
72379;SDS011;60354;47.798;12.472;2023-05-10T02:56:01;1.48;;;0.40;;
72379;SDS011;60354;47.798;12.472;2023-05-10T02:58:32;2.30;;;0.60;;
72379;SDS011;60354;47.798;12.472;2023-05-10T03:00:59;0.52;;;0.50;;
72379;SDS011;60354;47.798;12.472;2023-05-10T03:03:24;1.20;;;0.57;;
72379;SDS011;60354;47.798;12.472;2023-05-10T03:05:50;1.77;;;0.57;;
72379;SDS011;60354;47.798;12.472;2023-05-10T03:08:15;1.75;;;0.50;;
72379;SDS011;60354;47.798;12.472;2023-05-10T03:10:45;0.45;;;0.40;;
72379;SDS011;60354;47.798;12.472;2023-05-10T03:16:16;1.38;;;0.60;;
72379;SDS011;60354;47.798;12.472;2023-05-10T03:21:44;0.93;;;0.43;;
72379;SDS011;60354;47.798;12.472;2023-05-10T03:24:14;0.68;;;0.40;;
72379;SDS011;60354;47.798;12.472;2023-05-10T03:26:43;0.80;;;0.38;;
72379;SDS011;60354;47.798;12.472;2023-05-10T03:29:14;1.40;;;0.43;;
72379;SDS011;60354;47.798;12.472;2023-05-10T03:31:40;1.50;;;0.40;;
72379;SDS011;60354;47.798;12.472;2023-05-10T03:34:07;1.95;;;0.52;;
72379;SDS011;60354;47.798;12.472;2023-05-10T03:36:32;0.80;;;0.38;;
72379;SDS011;60354;47.798;12.472;2023-05-10T03:38:58;1.02;;;0.40;;
72379;SDS011;60354;47.798;12.472;2023-05-10T03:41:25;0.82;;;0.30;;
72379;SDS011;60354;47.798;12.472;2023-05-10T03:43:51;1.20;;;0.80;;
72379;SDS011;60354;47.798;12.472;2023-05-10T03:46:16;2.60;;;1.80;;
72379;SDS011;60354;47.798;12.472;2023-05-10T03:48:43;2.38;;;1.40;;
72379;SDS011;60354;47.798;12.472;2023-05-10T03:51:08;1.40;;;0.95;;
72379;SDS011;60354;47.798;12.472;2023-05-10T03:53:34;1.15;;;0.60;;
72379;SDS011;60354;47.798;12.472;2023-05-10T03:55:59;1.90;;;0.60;;
72379;SDS011;60354;47.798;12.472;2023-05-10T03:58:25;0.95;;;0.60;;
72379;SDS011;60354;47.798;12.472;2023-05-10T04:00:51;0.80;;;0.60;;
72379;SDS011;60354;47.798;12.472;2023-05-10T04:03:17;1.55;;;0.70;;
72379;SDS011;60354;47.798;12.472;2023-05-10T04:05:42;1.13;;;0.52;;
72379;SDS011;60354;47.798;12.472;2023-05-10T04:08:08;0.90;;;0.43;;
72379;SDS011;60354;47.798;12.472;2023-05-10T04:10:34;5.75;;;0.47;;
72379;SDS011;60354;47.798;12.472;2023-05-10T04:12:59;0.70;;;0.57;;
72379;SDS011;60354;47.798;12.472;2023-05-10T04:15:25;0.30;;;0.30;;
72379;SDS011;60354;47.798;12.472;2023-05-10T04:17:50;0.25;;;0.20;;
72379;SDS011;60354;47.798;12.472;2023-05-10T04:20:16;1.17;;;0.50;;
72379;SDS011;60354;47.798;12.472;2023-05-10T04:22:41;0.60;;;0.40;;
72379;SDS011;60354;47.798;12.472;2023-05-10T04:25:07;1.38;;;0.47;;
72379;SDS011;60354;47.798;12.472;2023-05-10T04:27:33;1.58;;;0.40;;
72379;SDS011;60354;47.798;12.472;2023-05-10T04:29:58;1.90;;;0.82;;
72379;SDS011;60354;47.798;12.472;2023-05-10T04:32:24;1.85;;;0.47;;
72379;SDS011;60354;47.798;12.472;2023-05-10T04:34:50;0.30;;;0.30;;
72379;SDS011;60354;47.798;12.472;2023-05-10T04:37:18;0.60;;;0.30;;
72379;SDS011;60354;47.798;12.472;2023-05-10T04:39:43;1.52;;;0.40;;
72379;SDS011;60354;47.798;12.472;2023-05-10T04:42:09;1.45;;;0.65;;
72379;SDS011;60354;47.798;12.472;2023-05-10T04:44:35;0.40;;;0.30;;
72379;SDS011;60354;47.798;12.472;2023-05-10T04:47:01;1.33;;;0.20;;
72379;SDS011;60354;47.798;12.472;2023-05-10T04:49:27;1.08;;;0.20;;
72379;SDS011;60354;47.798;12.472;2023-05-10T04:51:53;0.85;;;0.35;;
72379;SDS011;60354;47.798;12.472;2023-05-10T04:54:18;0.93;;;0.32;;
72379;SDS011;60354;47.798;12.472;2023-05-10T04:56:44;0.57;;;0.40;;
72379;SDS011;60354;47.798;12.472;2023-05-10T04:59:09;0.60;;;0.50;;
72379;SDS011;60354;47.798;12.472;2023-05-10T05:01:35;0.75;;;0.55;;
72379;SDS011;60354;47.798;12.472;2023-05-10T05:04:01;1.50;;;0.43;;
72379;SDS011;60354;47.798;12.472;2023-05-10T05:06:26;1.25;;;0.60;;
72379;SDS011;60354;47.798;12.472;2023-05-10T05:08:52;0.68;;;0.68;;
72379;SDS011;60354;47.798;12.472;2023-05-10T05:11:18;1.08;;;0.75;;
72379;SDS011;60354;47.798;12.472;2023-05-10T05:13:43;1.23;;;0.90;;
72379;SDS011;60354;47.798;12.472;2023-05-10T05:16:09;0.80;;;0.80;;
72379;SDS011;60354;47.798;12.472;2023-05-10T05:18:35;0.47;;;0.47;;
72379;SDS011;60354;47.798;12.472;2023-05-10T05:21:01;1.42;;;0.43;;
72379;SDS011;60354;47.798;12.472;2023-05-10T05:23:26;0.82;;;0.50;;
72379;SDS011;60354;47.798;12.472;2023-05-10T05:25:52;1.02;;;0.40;;
72379;SDS011;60354;47.798;12.472;2023-05-10T05:28:21;0.55;;;0.30;;
72379;SDS011;60354;47.798;12.472;2023-05-10T05:30:47;2.50;;;0.60;;
72379;SDS011;60354;47.798;12.472;2023-05-10T05:33:15;0.98;;;0.60;;
72379;SDS011;60354;47.798;12.472;2023-05-10T05:35:41;2.13;;;0.60;;
72379;SDS011;60354;47.798;12.472;2023-05-10T05:38:09;1.58;;;0.60;;
72379;SDS011;60354;47.798;12.472;2023-05-10T05:40:35;1.50;;;0.68;;
72379;SDS011;60354;47.798;12.472;2023-05-10T05:43:00;2.28;;;0.60;;
72379;SDS011;60354;47.798;12.472;2023-05-10T05:45:26;1.23;;;0.65;;
72379;SDS011;60354;47.798;12.472;2023-05-10T05:47:51;1.42;;;0.60;;
72379;SDS011;60354;47.798;12.472;2023-05-10T05:50:17;0.70;;;0.40;;
72379;SDS011;60354;47.798;12.472;2023-05-10T05:52:43;0.40;;;0.40;;
72379;SDS011;60354;47.798;12.472;2023-05-10T05:55:08;0.70;;;0.30;;
72379;SDS011;60354;47.798;12.472;2023-05-10T05:57:34;1.42;;;0.60;;
72379;SDS011;60354;47.798;12.472;2023-05-10T05:59:59;0.93;;;0.13;;
72379;SDS011;60354;47.798;12.472;2023-05-10T06:02:25;0.38;;;0.32;;
72379;SDS011;60354;47.798;12.472;2023-05-10T06:04:50;1.92;;;0.30;;
72379;SDS011;60354;47.798;12.472;2023-05-10T06:07:16;2.05;;;0.40;;
72379;SDS011;60354;47.798;12.472;2023-05-10T06:09:41;0.20;;;0.10;;
72379;SDS011;60354;47.798;12.472;2023-05-10T06:12:07;0.43;;;0.17;;
72379;SDS011;60354;47.798;12.472;2023-05-10T06:14:32;0.38;;;0.22;;
72379;SDS011;60354;47.798;12.472;2023-05-10T06:16:58;0.75;;;0.20;;
72379;SDS011;60354;47.798;12.472;2023-05-10T06:19:24;1.10;;;0.20;;
72379;SDS011;60354;47.798;12.472;2023-05-10T06:21:51;0.40;;;0.20;;
72379;SDS011;60354;47.798;12.472;2023-05-10T06:24:16;0.30;;;0.10;;
72379;SDS011;60354;47.798;12.472;2023-05-10T06:26:42;0.47;;;0.20;;
72379;SDS011;60354;47.798;12.472;2023-05-10T06:29:07;0.20;;;0.20;;
72379;SDS011;60354;47.798;12.472;2023-05-10T06:31:33;0.35;;;0.35;;
72379;SDS011;60354;47.798;12.472;2023-05-10T06:33:58;0.20;;;0.20;;
72379;SDS011;60354;47.798;12.472;2023-05-10T06:36:24;0.10;;;0.10;;
72379;SDS011;60354;47.798;12.472;2023-05-10T06:38:51;0.98;;;0.30;;
72379;SDS011;60354;47.798;12.472;2023-05-10T06:41:16;0.50;;;0.50;;
72379;SDS011;60354;47.798;12.472;2023-05-10T06:43:42;0.20;;;0.20;;
72379;SDS011;60354;47.798;12.472;2023-05-10T06:46:08;0.28;;;0.20;;
72379;SDS011;60354;47.798;12.472;2023-05-10T06:48:33;1.20;;;0.13;;
72379;SDS011;60354;47.798;12.472;2023-05-10T06:50:59;2.45;;;0.30;;
72379;SDS011;60354;47.798;12.472;2023-05-10T06:53:25;0.10;;;0.10;;
72379;SDS011;60354;47.798;12.472;2023-05-10T06:55:50;0.03;;;0.03;;
72379;SDS011;60354;47.798;12.472;2023-05-10T06:58:16;0.57;;;0.13;;
72379;SDS011;60354;47.798;12.472;2023-05-10T07:00:41;0.30;;;0.22;;
72379;SDS011;60354;47.798;12.472;2023-05-10T07:03:09;1.35;;;0.22;;
72379;SDS011;60354;47.798;12.472;2023-05-10T07:05:35;0.10;;;0.10;;
72379;SDS011;60354;47.798;12.472;2023-05-10T07:08:01;0.80;;;0.25;;
72379;SDS011;60354;47.798;12.472;2023-05-10T07:10:26;0.25;;;0.10;;
72379;SDS011;60354;47.798;12.472;2023-05-10T07:12:52;1.40;;;0.45;;
72379;SDS011;60354;47.798;12.472;2023-05-10T07:15:17;0.77;;;0.30;;
72379;SDS011;60354;47.798;12.472;2023-05-10T07:17:43;0.63;;;0.20;;
72379;SDS011;60354;47.798;12.472;2023-05-10T07:20:08;0.85;;;0.10;;
72379;SDS011;60354;47.798;12.472;2023-05-10T07:22:34;0.20;;;0.20;;
72379;SDS011;60354;47.798;12.472;2023-05-10T07:24:59;0.65;;;0.25;;
72379;SDS011;60354;47.798;12.472;2023-05-10T07:27:25;0.77;;;0.30;;
72379;SDS011;60354;47.798;12.472;2023-05-10T07:29:50;1.48;;;0.20;;
72379;SDS011;60354;47.798;12.472;2023-05-10T07:32:16;0.30;;;0.30;;
72379;SDS011;60354;47.798;12.472;2023-05-10T07:34:41;2.55;;;0.40;;
72379;SDS011;60354;47.798;12.472;2023-05-10T07:37:07;1.55;;;0.40;;
72379;SDS011;60354;47.798;12.472;2023-05-10T07:39:32;0.85;;;0.40;;
72379;SDS011;60354;47.798;12.472;2023-05-10T07:41:58;0.80;;;0.47;;
72379;SDS011;60354;47.798;12.472;2023-05-10T07:44:23;5.97;;;0.70;;
72379;SDS011;60354;47.798;12.472;2023-05-10T07:46:49;2.33;;;0.70;;
72379;SDS011;60354;47.798;12.472;2023-05-10T07:49:14;2.28;;;0.68;;
72379;SDS011;60354;47.798;12.472;2023-05-10T07:51:40;1.25;;;0.55;;
72379;SDS011;60354;47.798;12.472;2023-05-10T07:54:07;1.83;;;0.60;;
72379;SDS011;60354;47.798;12.472;2023-05-10T07:56:32;1.45;;;0.68;;
72379;SDS011;60354;47.798;12.472;2023-05-10T07:58:59;2.78;;;0.63;;
72379;SDS011;60354;47.798;12.472;2023-05-10T08:01:25;2.50;;;0.80;;
72379;SDS011;60354;47.798;12.472;2023-05-10T08:03:51;1.17;;;0.60;;
72379;SDS011;60354;47.798;12.472;2023-05-10T08:06:18;1.30;;;1.00;;
72379;SDS011;60354;47.798;12.472;2023-05-10T08:08:48;2.05;;;0.77;;
72379;SDS011;60354;47.798;12.472;2023-05-10T08:11:18;3.70;;;1.13;;
72379;SDS011;60354;47.798;12.472;2023-05-10T08:13:48;5.00;;;1.30;;
72379;SDS011;60354;47.798;12.472;2023-05-10T08:16:15;1.65;;;0.80;;
72379;SDS011;60354;47.798;12.472;2023-05-10T08:18:42;1.38;;;0.70;;
72379;SDS011;60354;47.798;12.472;2023-05-10T08:21:09;2.67;;;1.02;;
72379;SDS011;60354;47.798;12.472;2023-05-10T08:23:36;1.30;;;0.80;;
72379;SDS011;60354;47.798;12.472;2023-05-10T08:26:02;1.95;;;1.00;;
72379;SDS011;60354;47.798;12.472;2023-05-10T08:28:27;2.65;;;0.90;;
72379;SDS011;60354;47.798;12.472;2023-05-10T08:30:53;0.85;;;0.60;;
72379;SDS011;60354;47.798;12.472;2023-05-10T08:33:18;0.82;;;0.70;;
72379;SDS011;60354;47.798;12.472;2023-05-10T08:35:44;2.25;;;0.80;;
72379;SDS011;60354;47.798;12.472;2023-05-10T08:38:09;2.65;;;0.75;;
72379;SDS011;60354;47.798;12.472;2023-05-10T08:40:36;1.05;;;0.70;;
72379;SDS011;60354;47.798;12.472;2023-05-10T08:43:06;1.02;;;0.70;;
72379;SDS011;60354;47.798;12.472;2023-05-10T08:45:36;2.28;;;0.77;;
72379;SDS011;60354;47.798;12.472;2023-05-10T08:48:04;0.90;;;0.50;;
72379;SDS011;60354;47.798;12.472;2023-05-10T08:50:30;1.27;;;0.73;;
72379;SDS011;60354;47.798;12.472;2023-05-10T08:52:57;1.42;;;0.80;;
72379;SDS011;60354;47.798;12.472;2023-05-10T08:55:26;1.52;;;0.73;;
72379;SDS011;60354;47.798;12.472;2023-05-10T08:57:52;1.85;;;0.80;;
72379;SDS011;60354;47.798;12.472;2023-05-10T09:00:18;1.92;;;0.70;;
72379;SDS011;60354;47.798;12.472;2023-05-10T09:02:44;1.00;;;0.70;;
72379;SDS011;60354;47.798;12.472;2023-05-10T09:05:13;1.40;;;0.80;;
72379;SDS011;60354;47.798;12.472;2023-05-10T09:07:41;1.38;;;0.57;;
72379;SDS011;60354;47.798;12.472;2023-05-10T09:10:07;1.60;;;0.80;;
72379;SDS011;60354;47.798;12.472;2023-05-10T09:12:33;0.60;;;0.60;;
72379;SDS011;60354;47.798;12.472;2023-05-10T09:15:00;3.92;;;0.70;;
72379;SDS011;60354;47.798;12.472;2023-05-10T09:17:26;3.17;;;0.77;;
72379;SDS011;60354;47.798;12.472;2023-05-10T09:19:57;2.45;;;0.90;;
72379;SDS011;60354;47.798;12.472;2023-05-10T09:22:26;1.42;;;0.80;;
72379;SDS011;60354;47.798;12.472;2023-05-10T09:25:08;1.00;;;0.80;;
72379;SDS011;60354;47.798;12.472;2023-05-10T09:27:36;1.80;;;0.80;;
72379;SDS011;60354;47.798;12.472;2023-05-10T09:30:03;0.63;;;0.60;;
72379;SDS011;60354;47.798;12.472;2023-05-10T09:32:39;4.57;;;0.60;;
72379;SDS011;60354;47.798;12.472;2023-05-10T09:35:07;2.03;;;0.80;;
72379;SDS011;60354;47.798;12.472;2023-05-10T09:37:33;2.25;;;0.93;;
72379;SDS011;60354;47.798;12.472;2023-05-10T09:39:58;2.35;;;1.00;;
72379;SDS011;60354;47.798;12.472;2023-05-10T09:42:24;1.60;;;1.00;;
72379;SDS011;60354;47.798;12.472;2023-05-10T09:44:50;1.15;;;0.90;;
72379;SDS011;60354;47.798;12.472;2023-05-10T09:47:18;1.00;;;0.80;;
72379;SDS011;60354;47.798;12.472;2023-05-10T09:49:48;3.63;;;1.10;;
72379;SDS011;60354;47.798;12.472;2023-05-10T09:52:15;2.50;;;1.10;;
72379;SDS011;60354;47.798;12.472;2023-05-10T09:54:44;2.90;;;1.95;;
72379;SDS011;60354;47.798;12.472;2023-05-10T09:57:20;4.57;;;1.70;;
72379;SDS011;60354;47.798;12.472;2023-05-10T09:59:47;2.22;;;1.40;;
72379;SDS011;60354;47.798;12.472;2023-05-10T10:02:13;1.67;;;1.20;;
72379;SDS011;60354;47.798;12.472;2023-05-10T10:04:39;2.15;;;1.08;;
72379;SDS011;60354;47.798;12.472;2023-05-10T10:07:05;2.22;;;1.08;;
72379;SDS011;60354;47.798;12.472;2023-05-10T10:09:32;1.70;;;1.52;;
72379;SDS011;60354;47.798;12.472;2023-05-10T10:11:59;1.63;;;1.52;;
72379;SDS011;60354;47.798;12.472;2023-05-10T10:14:25;1.73;;;1.10;;
72379;SDS011;60354;47.798;12.472;2023-05-10T10:16:51;1.90;;;1.13;;
72379;SDS011;60354;47.798;12.472;2023-05-10T10:19:19;1.40;;;1.00;;
72379;SDS011;60354;47.798;12.472;2023-05-10T10:21:45;2.75;;;1.10;;
72379;SDS011;60354;47.798;12.472;2023-05-10T10:24:11;1.42;;;1.00;;
72379;SDS011;60354;47.798;12.472;2023-05-10T10:26:37;2.63;;;0.82;;
72379;SDS011;60354;47.798;12.472;2023-05-10T10:34:48;2.08;;;0.90;;
72379;SDS011;60354;47.798;12.472;2023-05-10T10:37:14;2.28;;;0.90;;
72379;SDS011;60354;47.798;12.472;2023-05-10T10:39:40;3.30;;;1.08;;
72379;SDS011;60354;47.798;12.472;2023-05-10T10:42:06;3.10;;;1.15;;
72379;SDS011;60354;47.798;12.472;2023-05-10T10:49:48;1.77;;;0.82;;
72379;SDS011;60354;47.798;12.472;2023-05-10T10:55:04;3.05;;;1.30;;
72379;SDS011;60354;47.798;12.472;2023-05-10T10:57:32;4.28;;;2.15;;
72379;SDS011;60354;47.798;12.472;2023-05-10T11:03:11;5.03;;;1.33;;
72379;SDS011;60354;47.798;12.472;2023-05-10T11:08:27;1.48;;;1.02;;
72379;SDS011;60354;47.798;12.472;2023-05-10T11:16:17;2.10;;;0.98;;
72379;SDS011;60354;47.798;12.472;2023-05-10T11:21:33;0.88;;;0.75;;
72379;SDS011;60354;47.798;12.472;2023-05-10T11:24:00;1.58;;;0.80;;
72379;SDS011;60354;47.798;12.472;2023-05-10T11:26:30;2.03;;;0.90;;
72379;SDS011;60354;47.798;12.472;2023-05-10T11:28:57;1.50;;;0.90;;
72379;SDS011;60354;47.798;12.472;2023-05-10T11:31:25;0.82;;;0.75;;
72379;SDS011;60354;47.798;12.472;2023-05-10T11:33:52;1.63;;;0.90;;
72379;SDS011;60354;47.798;12.472;2023-05-10T11:36:29;2.03;;;0.82;;
72379;SDS011;60354;47.798;12.472;2023-05-10T11:38:57;0.93;;;0.80;;
72379;SDS011;60354;47.798;12.472;2023-05-10T11:41:24;1.27;;;0.70;;
72379;SDS011;60354;47.798;12.472;2023-05-10T11:43:50;0.82;;;0.80;;
72379;SDS011;60354;47.798;12.472;2023-05-10T11:46:20;0.75;;;0.60;;
72379;SDS011;60354;47.798;12.472;2023-05-10T11:48:50;1.52;;;0.80;;
72379;SDS011;60354;47.798;12.472;2023-05-10T11:51:19;1.45;;;1.00;;
72379;SDS011;60354;47.798;12.472;2023-05-10T11:53:47;1.25;;;0.77;;
72379;SDS011;60354;47.798;12.472;2023-05-10T11:56:14;0.63;;;0.60;;
72379;SDS011;60354;47.798;12.472;2023-05-10T11:58:39;2.15;;;0.70;;
72379;SDS011;60354;47.798;12.472;2023-05-10T12:01:05;2.47;;;0.73;;
72379;SDS011;60354;47.798;12.472;2023-05-10T12:03:32;1.70;;;0.70;;
72379;SDS011;60354;47.798;12.472;2023-05-10T12:05:59;2.15;;;0.85;;
72379;SDS011;60354;47.798;12.472;2023-05-10T12:08:26;1.55;;;0.70;;
72379;SDS011;60354;47.798;12.472;2023-05-10T12:10:54;0.70;;;0.70;;
72379;SDS011;60354;47.798;12.472;2023-05-10T12:13:30;1.30;;;0.80;;
72379;SDS011;60354;47.798;12.472;2023-05-10T12:15:58;1.00;;;0.70;;
72379;SDS011;60354;47.798;12.472;2023-05-10T12:18:24;0.90;;;0.80;;
72379;SDS011;60354;47.798;12.472;2023-05-10T12:20:53;2.83;;;1.00;;
72379;SDS011;60354;47.798;12.472;2023-05-10T12:23:19;0.77;;;0.65;;
72379;SDS011;60354;47.798;12.472;2023-05-10T12:25:45;0.70;;;0.70;;
72379;SDS011;60354;47.798;12.472;2023-05-10T12:28:11;1.05;;;0.70;;
72379;SDS011;60354;47.798;12.472;2023-05-10T12:30:37;2.95;;;1.00;;
72379;SDS011;60354;47.798;12.472;2023-05-10T12:33:10;1.00;;;0.90;;
72379;SDS011;60354;47.798;12.472;2023-05-10T12:41:03;2.72;;;0.90;;
72379;SDS011;60354;47.798;12.472;2023-05-10T12:43:30;1.20;;;0.80;;
72379;SDS011;60354;47.798;12.472;2023-05-10T12:45:56;0.93;;;0.80;;
72379;SDS011;60354;47.798;12.472;2023-05-10T12:48:22;1.17;;;0.90;;
72379;SDS011;60354;47.798;12.472;2023-05-10T12:50:48;1.05;;;0.90;;
72379;SDS011;60354;47.798;12.472;2023-05-10T12:53:14;1.92;;;1.10;;
72379;SDS011;60354;47.798;12.472;2023-05-10T12:55:43;1.92;;;1.15;;
72379;SDS011;60354;47.798;12.472;2023-05-10T12:58:08;1.73;;;1.10;;
72379;SDS011;60354;47.798;12.472;2023-05-10T13:00:34;3.15;;;1.10;;
72379;SDS011;60354;47.798;12.472;2023-05-10T13:03:00;1.20;;;1.10;;
72379;SDS011;60354;47.798;12.472;2023-05-10T13:05:25;1.27;;;0.88;;
72379;SDS011;60354;47.798;12.472;2023-05-10T13:07:51;1.55;;;0.70;;
72379;SDS011;60354;47.798;12.472;2023-05-10T13:10:16;0.70;;;0.50;;
72379;SDS011;60354;47.798;12.472;2023-05-10T13:12:42;2.55;;;0.70;;
72379;SDS011;60354;47.798;12.472;2023-05-10T13:15:07;1.00;;;0.50;;
72379;SDS011;60354;47.798;12.472;2023-05-10T13:17:33;0.40;;;0.30;;
72379;SDS011;60354;47.798;12.472;2023-05-10T13:19:59;0.85;;;0.50;;
72379;SDS011;60354;47.798;12.472;2023-05-10T13:22:24;7.38;;;0.70;;
72379;SDS011;60354;47.798;12.472;2023-05-10T13:24:50;2.63;;;0.70;;
72379;SDS011;60354;47.798;12.472;2023-05-10T13:27:15;1.15;;;0.50;;
72379;SDS011;60354;47.798;12.472;2023-05-10T13:29:41;0.60;;;0.50;;
72379;SDS011;60354;47.798;12.472;2023-05-10T13:32:06;2.83;;;0.70;;
72379;SDS011;60354;47.798;12.472;2023-05-10T13:34:32;5.90;;;1.00;;
72379;SDS011;60354;47.798;12.472;2023-05-10T13:36:57;0.95;;;0.60;;
72379;SDS011;60354;47.798;12.472;2023-05-10T13:39:23;3.30;;;0.60;;
72379;SDS011;60354;47.798;12.472;2023-05-10T13:41:48;1.48;;;0.80;;
72379;SDS011;60354;47.798;12.472;2023-05-10T13:44:14;1.23;;;0.50;;
72379;SDS011;60354;47.798;12.472;2023-05-10T13:46:40;2.80;;;0.60;;
72379;SDS011;60354;47.798;12.472;2023-05-10T13:49:08;2.08;;;0.75;;
72379;SDS011;60354;47.798;12.472;2023-05-10T13:51:34;2.40;;;0.70;;
72379;SDS011;60354;47.798;12.472;2023-05-10T13:54:01;1.30;;;0.70;;
72379;SDS011;60354;47.798;12.472;2023-05-10T13:56:29;2.67;;;0.82;;
72379;SDS011;60354;47.798;12.472;2023-05-10T13:58:55;2.47;;;0.60;;
72379;SDS011;60354;47.798;12.472;2023-05-10T14:01:22;5.88;;;0.90;;
72379;SDS011;60354;47.798;12.472;2023-05-10T14:03:48;2.42;;;0.73;;
72379;SDS011;60354;47.798;12.472;2023-05-10T14:06:13;1.45;;;0.98;;
72379;SDS011;60354;47.798;12.472;2023-05-10T14:08:39;3.78;;;0.70;;
72379;SDS011;60354;47.798;12.472;2023-05-10T14:11:05;27.63;;;2.55;;
72379;SDS011;60354;47.798;12.472;2023-05-10T14:13:30;5.20;;;0.90;;
72379;SDS011;60354;47.798;12.472;2023-05-10T14:15:56;1.55;;;0.80;;
72379;SDS011;60354;47.798;12.472;2023-05-10T14:18:21;1.27;;;0.70;;
72379;SDS011;60354;47.798;12.472;2023-05-10T14:20:47;1.95;;;0.60;;
72379;SDS011;60354;47.798;12.472;2023-05-10T14:23:12;1.75;;;0.80;;
72379;SDS011;60354;47.798;12.472;2023-05-10T14:25:41;1.05;;;0.77;;
72379;SDS011;60354;47.798;12.472;2023-05-10T14:28:06;2.47;;;0.75;;
72379;SDS011;60354;47.798;12.472;2023-05-10T14:30:32;1.70;;;0.80;;
72379;SDS011;60354;47.798;12.472;2023-05-10T14:32:59;1.48;;;0.80;;
72379;SDS011;60354;47.798;12.472;2023-05-10T14:35:26;1.73;;;0.70;;
72379;SDS011;60354;47.798;12.472;2023-05-10T14:37:52;0.70;;;0.70;;
72379;SDS011;60354;47.798;12.472;2023-05-10T14:40:18;0.63;;;0.60;;
72379;SDS011;60354;47.798;12.472;2023-05-10T14:42:43;0.68;;;0.57;;
72379;SDS011;60354;47.798;12.472;2023-05-10T14:45:09;2.00;;;0.80;;
72379;SDS011;60354;47.798;12.472;2023-05-10T14:47:36;3.72;;;0.88;;
72379;SDS011;60354;47.798;12.472;2023-05-10T14:50:01;1.90;;;0.65;;
72379;SDS011;60354;47.798;12.472;2023-05-10T14:52:27;2.78;;;0.85;;
72379;SDS011;60354;47.798;12.472;2023-05-10T14:54:52;4.10;;;1.08;;
72379;SDS011;60354;47.798;12.472;2023-05-10T14:57:18;0.90;;;0.75;;
72379;SDS011;60354;47.798;12.472;2023-05-10T14:59:44;1.52;;;0.80;;
72379;SDS011;60354;47.798;12.472;2023-05-10T15:02:09;1.90;;;0.70;;
72379;SDS011;60354;47.798;12.472;2023-05-10T15:04:35;1.30;;;0.70;;
72379;SDS011;60354;47.798;12.472;2023-05-10T15:07:00;0.70;;;0.70;;
72379;SDS011;60354;47.798;12.472;2023-05-10T15:09:26;3.70;;;0.80;;
72379;SDS011;60354;47.798;12.472;2023-05-10T15:11:53;0.95;;;0.80;;
72379;SDS011;60354;47.798;12.472;2023-05-10T15:14:18;1.85;;;1.00;;
72379;SDS011;60354;47.798;12.472;2023-05-10T15:16:44;1.30;;;0.90;;
72379;SDS011;60354;47.798;12.472;2023-05-10T15:19:09;1.10;;;0.80;;
72379;SDS011;60354;47.798;12.472;2023-05-10T15:21:35;0.63;;;0.63;;
72379;SDS011;60354;47.798;12.472;2023-05-10T15:24:06;2.67;;;0.70;;